Atlanta, Georgia
Current Conditions -  °F | °C
As of 12:52 PM on Sunday 21 Dec 2014 (Local Time) from KATL Reporting Station
Haze Haze  
Wind Chill:   Ceiling: 700
Heat Index:   Visibility: 2.5mi
Dew Point:   Wind: 8mph
Humidity: 86%   Direction: 100°E
Pressure: 30.15"   Gusts: NA
Location:  33.75°N, 84.39°W
Report Text: KATL 211752Z 10007KT 2 1/2SM BR OVC007 09/07 A3015 RMK AO2 SFC VIS 5 SLP213 60000 T00890067 10094 20078 58017
Loading
Personal Weather Stations






























Interactive Weather Map New forecast layout! Learn more

10-Day Weather Forecast

Advertisements
Track Severe Weather on mobile